Time;durP1;ratioP1;P1;durP2;ratioP2;P2;SDS_P1;SDS_P2;PMS_P1;PMS_P2;Temp;Humidity;BMP_temperature;BMP_pressure;BME280_temperature;BME280_humidity;BME280_pressure;Samples;Min_cycle;Max_cycle;Signal;HPM_P1;HPM_P2
2021/03/19 00:00:24;;;;;;;22.17;16.08;;;2.50;98.50;;;;;;2038885;28;20055;-74
2021/03/19 00:01:25;;;;;;;21.58;15.55;;;2.50;98.50;;;;;;2038286;29;20476;-74
2021/03/19 00:02:26;;;;;;;23.02;16.27;;;2.50;98.40;;;;;;2031715;28;20078;-72
2021/03/19 00:03:26;;;;;;;22.25;16.10;;;2.60;98.20;;;;;;2031702;29;20040;-72
2021/03/19 00:04:27;;;;;;;20.42;15.30;;;2.60;98.20;;;;;;2039446;28;20031;-72
2021/03/19 00:05:29;;;;;;;21.95;16.00;;;2.70;97.90;;;;;;2039373;28;20036;-73
2021/03/19 00:06:30;;;;;;;22.00;15.77;;;2.70;98.00;;;;;;2039156;29;20395;-72
2021/03/19 00:07:46;;;;;;;23.27;15.98;;;2.70;97.60;;;;;;2039340;28;20035;-72
2021/03/19 00:08:46;;;;;;;22.25;15.60;;;2.70;97.60;;;;;;2037263;29;20112;-72
2021/03/19 00:09:47;;;;;;;21.33;15.18;;;2.60;97.60;;;;;;2031704;29;20099;-72
2021/03/19 00:10:48;;;;;;;21.75;15.95;;;2.60;97.60;;;;;;2031242;29;20171;-72
2021/03/19 00:11:48;;;;;;;21.40;14.90;;;2.60;97.70;;;;;;2031690;28;20020;-72
2021/03/19 00:12:50;;;;;;;22.88;15.75;;;2.60;97.70;;;;;;2030963;28;20087;-72
2021/03/19 00:13:51;;;;;;;23.02;15.55;;;2.60;97.60;;;;;;2030836;29;20074;-71
2021/03/19 00:14:52;;;;;;;25.48;16.95;;;2.50;97.80;;;;;;2031000;29;20546;-72
2021/03/19 00:15:53;;;;;;;24.15;16.73;;;2.50;98.00;;;;;;2031073;29;20563;-72
2021/03/19 00:16:53;;;;;;;21.67;15.98;;;2.50;98.20;;;;;;2031497;28;20052;-72
2021/03/19 00:17:55;;;;;;;23.35;16.02;;;2.50;98.30;;;;;;2031016;28;20196;-73
2021/03/19 00:18:55;;;;;;;24.30;16.58;;;2.50;98.30;;;;;;2030988;29;20063;-72
2021/03/19 00:19:56;;;;;;;22.20;15.98;;;2.50;98.60;;;;;;2038744;28;20027;-72
2021/03/19 00:20:56;;;;;;;23.67;16.60;;;2.50;98.30;;;;;;2038498;29;20024;-72
2021/03/19 00:21:57;;;;;;;23.42;16.50;;;2.50;98.30;;;;;;2039012;29;20023;-72
2021/03/19 00:22:58;;;;;;;23.35;16.08;;;2.50;98.20;;;;;;2031536;29;20434;-72
2021/03/19 00:23:58;;;;;;;22.58;15.93;;;2.50;98.30;;;;;;2030707;28;20110;-72
2021/03/19 00:24:59;;;;;;;24.85;17.23;;;2.50;98.30;;;;;;2031103;29;20519;-72
2021/03/19 00:26:00;;;;;;;25.08;16.50;;;2.60;98.30;;;;;;2038980;29;20550;-71
2021/03/19 00:27:01;;;;;;;25.20;16.95;;;2.60;98.20;;;;;;2031724;28;20028;-72
2021/03/19 00:28:03;;;;;;;23.30;16.38;;;2.60;98.10;;;;;;2039223;28;20036;-72
2021/03/19 00:29:04;;;;;;;23.77;16.33;;;2.60;98.00;;;;;;2038668;29;20035;-72
2021/03/19 00:30:08;;;;;;;23.92;16.90;;;2.60;98.00;;;;;;2031587;28;20024;-73
2021/03/19 00:31:08;;;;;;;23.25;16.27;;;2.60;98.00;;;;;;2031386;29;20044;-73
2021/03/19 00:32:09;;;;;;;25.85;17.80;;;2.60;98.00;;;;;;2031709;28;20028;-73
2021/03/19 00:33:09;;;;;;;25.02;17.42;;;2.60;98.20;;;;;;2031614;28;20032;-73
2021/03/19 00:34:10;;;;;;;24.25;16.67;;;2.50;98.30;;;;;;2030861;29;20036;-72
2021/03/19 00:35:11;;;;;;;24.38;17.17;;;2.50;98.30;;;;;;2031039;29;20043;-72
2021/03/19 00:36:12;;;;;;;25.05;17.58;;;2.60;98.60;;;;;;2039144;28;20078;-72
2021/03/19 00:37:13;;;;;;;25.63;17.52;;;2.60;98.30;;;;;;2038929;29;20048;-73
2021/03/19 00:38:14;;;;;;;22.63;16.00;;;2.60;98.20;;;;;;2038948;29;20034;-73
2021/03/19 00:39:14;;;;;;;22.92;16.13;;;2.60;98.20;;;;;;2031016;29;20150;-72
2021/03/19 00:40:16;;;;;;;26.08;17.20;;;2.50;98.10;;;;;;2031056;29;20043;-71
2021/03/19 00:41:18;;;;;;;24.00;17.23;;;2.60;98.20;;;;;;2038436;28;20031;-72
2021/03/19 00:42:19;;;;;;;23.55;15.88;;;2.60;98.20;;;;;;2038609;29;20043;-72
2021/03/19 00:43:20;;;;;;;22.85;16.13;;;2.60;98.20;;;;;;2030986;29;20028;-72
2021/03/19 00:44:20;;;;;;;23.67;16.08;;;2.60;98.10;;;;;;2031625;28;20032;-72
2021/03/19 00:45:22;;;;;;;23.38;16.20;;;2.60;98.10;;;;;;2031402;28;20028;-72
2021/03/19 00:46:23;;;;;;;23.30;16.33;;;2.60;98.20;;;;;;2031509;29;20492;-72
2021/03/19 00:47:23;;;;;;;24.98;16.45;;;2.60;98.10;;;;;;2031017;28;20078;-72
2021/03/19 00:48:24;;;;;;;22.52;16.50;;;2.60;98.20;;;;;;2023029;29;20119;-72
2021/03/19 00:49:25;;;;;;;25.92;17.77;;;2.60;98.10;;;;;;2030793;29;20032;-72
2021/03/19 00:50:34;;;;;;;24.88;17.27;;;2.60;98.10;;;;;;2030761;29;20039;-72
2021/03/19 00:51:35;;;;;;;24.85;17.17;;;2.60;98.00;;;;;;2030193;29;20071;-72
2021/03/19 00:52:37;;;;;;;23.92;16.55;;;2.60;98.00;;;;;;2022875;28;20095;-72
2021/03/19 00:53:37;;;;;;;22.40;15.80;;;2.60;98.20;;;;;;2022767;29;20039;-72
2021/03/19 00:54:38;;;;;;;24.08;17.13;;;2.60;98.20;;;;;;2038887;28;20117;-72
2021/03/19 00:55:39;;;;;;;24.08;16.83;;;2.60;98.10;;;;;;2038871;29;20380;-72
2021/03/19 00:56:40;;;;;;;22.48;15.93;;;2.60;98.10;;;;;;2030989;29;20456;-73
2021/03/19 00:57:40;;;;;;;23.27;16.80;;;2.60;98.30;;;;;;2023261;29;20036;-73
2021/03/19 00:58:41;;;;;;;23.38;16.25;;;2.60;98.20;;;;;;2031148;29;20401;-72
2021/03/19 00:59:41;;;;;;;23.02;15.68;;;2.60;98.10;;;;;;2031743;28;20664;-72
2021/03/19 01:00:42;;;;;;;24.00;16.95;;;2.60;98.20;;;;;;2031182;28;20028;-73
2021/03/19 01:01:42;;;;;;;25.00;17.05;;;2.60;98.20;;;;;;2031520;28;20082;-73
2021/03/19 01:02:43;;;;;;;22.77;16.35;;;2.50;98.10;;;;;;2031372;28;20031;-72
2021/03/19 01:03:44;;;;;;;23.98;16.65;;;2.50;98.10;;;;;;2030980;29;20024;-73
2021/03/19 01:04:44;;;;;;;22.90;16.00;;;2.60;98.10;;;;;;2038770;28;20395;-73
2021/03/19 01:05:46;;;;;;;25.50;17.25;;;2.50;98.10;;;;;;2038835;28;20035;-73
2021/03/19 01:06:47;;;;;;;23.98;16.55;;;2.60;98.20;;;;;;2030928;29;20028;-72
2021/03/19 01:07:48;;;;;;;23.60;16.40;;;2.60;98.10;;;;;;2031551;29;20024;-73
2021/03/19 01:08:48;;;;;;;23.70;16.02;;;2.50;98.10;;;;;;2032848;29;20511;-72
2021/03/19 01:09:49;;;;;;;22.15;15.85;;;2.50;98.10;;;;;;2031153;28;20059;-72
2021/03/19 01:10:56;;;;;;;22.65;15.65;;;2.50;98.00;;;;;;2030776;29;20134;-72
2021/03/19 01:11:57;;;;;;;20.98;15.45;;;2.50;98.10;;;;;;2033406;29;20059;-72
2021/03/19 01:12:58;;;;;;;21.88;15.57;;;2.50;98.10;;;;;;2033510;28;20472;-72
2021/03/19 01:13:59;;;;;;;21.45;15.02;;;2.50;98.30;;;;;;2035572;29;20029;-72
2021/03/19 01:14:59;;;;;;;22.63;15.68;;;2.50;98.40;;;;;;2036106;29;20029;-71
2021/03/19 01:16:00;;;;;;;21.35;15.30;;;2.50;98.50;;;;;;2037652;29;20075;-72
2021/03/19 01:17:01;;;;;;;20.50;15.07;;;2.50;98.50;;;;;;2035331;28;20020;-73
2021/03/19 01:18:02;;;;;;;22.27;15.52;;;2.50;98.50;;;;;;2033728;28;20059;-72
2021/03/19 01:19:03;;;;;;;21.95;15.57;;;2.50;98.40;;;;;;2033639;29;20582;-72
2021/03/19 01:20:07;;;;;;;20.90;15.23;;;2.60;98.30;;;;;;2031329;29;20032;-72
2021/03/19 01:21:08;;;;;;;22.77;15.48;;;2.60;98.30;;;;;;2030425;29;20407;-72
2021/03/19 01:22:09;;;;;;;21.33;15.02;;;2.60;98.20;;;;;;2023031;29;20508;-72
2021/03/19 01:23:11;;;;;;;21.85;15.60;;;2.60;98.00;;;;;;2030585;29;20024;-73
2021/03/19 01:24:11;;;;;;;22.88;15.52;;;2.60;97.90;;;;;;2030750;28;20119;-72
2021/03/19 01:25:17;;;;;;;21.73;15.15;;;2.60;97.90;;;;;;2030559;28;20086;-71
2021/03/19 01:26:17;;;;;;;22.27;14.77;;;2.60;97.90;;;;;;2031381;29;20051;-72
2021/03/19 01:27:18;;;;;;;21.27;15.02;;;2.50;97.90;;;;;;2030811;29;20028;-73
2021/03/19 01:28:18;;;;;;;20.95;15.20;;;2.50;98.00;;;;;;2030975;29;20507;-72
2021/03/19 01:29:20;;;;;;;20.85;15.02;;;2.50;98.00;;;;;;2031363;29;20097;-71
2021/03/19 01:30:23;;;;;;;22.35;15.40;;;2.50;98.00;;;;;;2038620;28;20078;-71
2021/03/19 01:31:24;;;;;;;19.40;13.80;;;2.50;98.00;;;;;;2037889;29;20544;-71
2021/03/19 01:32:25;;;;;;;20.55;14.75;;;2.60;98.00;;;;;;2031310;28;20079;-72
2021/03/19 01:33:25;;;;;;;20.02;14.52;;;2.50;98.00;;;;;;2030828;28;20123;-72
2021/03/19 01:34:26;;;;;;;20.08;13.68;;;2.60;98.00;;;;;;2031230;28;20033;-72
2021/03/19 01:35:30;;;;;;;20.50;13.77;;;2.50;98.10;;;;;;2038210;28;20031;-73
2021/03/19 01:36:31;;;;;;;19.38;13.60;;;2.50;98.10;;;;;;2038237;29;20035;-72
2021/03/19 01:37:32;;;;;;;19.23;13.50;;;2.50;98.20;;;;;;2038525;28;20036;-72
2021/03/19 01:38:37;;;;;;;21.65;14.88;;;2.50;98.20;;;;;;2038494;29;20114;-72
2021/03/19 01:39:37;;;;;;;21.33;15.15;;;2.60;98.20;;;;;;2030709;29;20063;-72
2021/03/19 01:40:41;;;;;;;21.42;15.10;;;2.50;98.20;;;;;;2030829;28;20078;-71
2021/03/19 01:41:46;;;;;;;22.70;15.60;;;2.50;98.30;;;;;;2031176;29;20028;-72
2021/03/19 01:42:55;;;;;;;21.45;15.27;;;2.50;98.10;;;;;;2031090;29;20039;-72
2021/03/19 01:44:07;;;;;;;21.02;14.82;;;2.50;98.10;;;;;;2037986;28;20027;-72
2021/03/19 01:45:07;;;;;;;21.92;15.52;;;2.50;98.20;;;;;;2036863;28;20031;-72
2021/03/19 01:46:45;;;;;;;21.50;15.27;;;2.50;98.20;;;;;;2030481;29;20099;-72
2021/03/19 01:48:24;;;;;;;21.67;15.00;;;2.50;98.20;;;;;;2034034;29;20032;-72
2021/03/19 01:50:01;;;;;;;21.25;14.15;;;2.40;98.20;;;;;;2030618;29;20031;-71
2021/03/19 01:51:40;;;;;;;21.77;15.00;;;2.50;98.20;;;;;;2030587;29;20028;-71
2021/03/19 01:53:18;;;;;;;22.85;14.75;;;2.50;98.10;;;;;;2030440;29;20483;-72
2021/03/19 01:55:12;;;;;;;22.55;14.70;;;2.50;98.00;;;;;;2030955;29;20035;-71
2021/03/19 01:56:50;;;;;;;22.33;14.35;;;2.50;97.90;;;;;;2055111;28;20031;-72
2021/03/19 01:58:28;;;;;;;23.73;15.55;;;2.50;98.00;;;;;;2054979;28;20038;-72
2021/03/19 02:00:06;;;;;;;20.95;14.38;;;2.50;98.00;;;;;;2038409;29;20122;-72
2021/03/19 02:01:44;;;;;;;22.42;15.02;;;2.50;98.00;;;;;;2033717;29;20075;-72
2021/03/19 02:03:23;;;;;;;20.00;14.02;;;2.50;97.90;;;;;;2031132;29;20479;-72
2021/03/19 02:05:01;;;;;;;22.13;14.45;;;2.50;98.00;;;;;;2032542;29;20111;-72
2021/03/19 02:06:39;;;;;;;26.05;16.73;;;2.50;98.00;;;;;;2031897;29;20036;-72
2021/03/19 02:08:17;;;;;;;26.85;16.98;;;2.50;98.10;;;;;;2032072;29;20028;-71
2021/03/19 02:09:55;;;;;;;26.13;16.83;;;2.40;98.20;;;;;;2032503;29;20044;-72
2021/03/19 02:11:33;;;;;;;24.38;15.93;;;2.40;98.20;;;;;;2031575;29;20103;-71
2021/03/19 02:13:10;;;;;;;28.10;18.20;;;2.40;98.30;;;;;;2028798;29;20039;-72
2021/03/19 02:14:48;;;;;;;30.25;17.80;;;2.40;98.50;;;;;;2028638;29;20094;-72
2021/03/19 02:16:26;;;;;;;26.77;16.88;;;2.40;98.70;;;;;;2028734;29;20108;-72
2021/03/19 02:18:04;;;;;;;30.08;18.73;;;2.40;98.80;;;;;;2028614;29;20032;-72
2021/03/19 02:19:42;;;;;;;26.65;17.38;;;2.30;98.90;;;;;;2032247;29;20691;-72
2021/03/19 02:21:20;;;;;;;26.48;17.33;;;2.30;98.80;;;;;;2023504;29;20072;-72
2021/03/19 02:22:58;;;;;;;28.80;17.35;;;2.30;98.80;;;;;;2028564;29;20412;-73
2021/03/19 02:24:36;;;;;;;24.33;16.00;;;2.30;98.80;;;;;;2031555;29;20040;-72
2021/03/19 02:26:14;;;;;;;23.55;15.55;;;2.30;98.90;;;;;;2032203;29;20028;-72
2021/03/19 02:27:52;;;;;;;25.33;15.80;;;2.40;98.60;;;;;;2031682;29;20044;-71
2021/03/19 02:29:30;;;;;;;24.70;16.38;;;2.40;98.40;;;;;;2028595;29;20535;-72
2021/03/19 02:31:08;;;;;;;25.67;16.67;;;2.40;98.20;;;;;;2031686;29;20399;-72
2021/03/19 02:32:14;;;;;;;30.25;17.20;;;2.30;98.20;;;;;;2032040;29;20024;-72
2021/03/19 02:33:15;;;;;;;24.75;16.33;;;2.30;98.40;;;;;;2031019;29;20047;-72
2021/03/19 02:34:16;;;;;;;24.92;16.52;;;2.30;98.50;;;;;;2031550;29;20791;-72
2021/03/19 02:35:23;;;;;;;26.75;17.40;;;2.30;98.50;;;;;;2031969;29;20494;-72
2021/03/19 02:36:26;;;;;;;26.17;17.65;;;2.30;98.40;;;;;;2032151;29;20028;-71
2021/03/19 02:37:33;;;;;;;26.45;17.75;;;2.40;98.40;;;;;;2032275;29;20036;-70
2021/03/19 02:38:33;;;;;;;31.13;18.17;;;2.40;98.40;;;;;;2032187;29;20124;-70
2021/03/19 02:39:34;;;;;;;27.00;17.77;;;2.40;98.20;;;;;;2032220;28;20369;-70
2021/03/19 02:40:35;;;;;;;26.73;17.25;;;2.30;98.40;;;;;;2031491;29;20040;-70
2021/03/19 02:41:36;;;;;;;28.10;18.05;;;2.30;98.50;;;;;;2023749;29;20040;-71
2021/03/19 02:42:36;;;;;;;27.27;17.85;;;2.40;98.50;;;;;;2031628;29;20039;-70
2021/03/19 02:43:37;;;;;;;27.30;17.55;;;2.30;98.40;;;;;;2031751;28;20703;-70
2021/03/19 02:44:38;;;;;;;28.45;17.90;;;2.30;98.40;;;;;;2032385;28;20051;-71
2021/03/19 02:45:38;;;;;;;29.02;18.33;;;2.30;98.50;;;;;;2032199;29;20020;-70
2021/03/19 02:46:39;;;;;;;27.88;17.77;;;2.30;98.50;;;;;;2031802;28;20040;-70
2021/03/19 02:47:40;;;;;;;25.88;17.55;;;2.40;98.50;;;;;;2031834;29;20036;-70
2021/03/19 02:48:40;;;;;;;29.42;18.52;;;2.40;98.40;;;;;;2032305;28;20028;-70
2021/03/19 02:49:41;;;;;;;29.05;18.67;;;2.40;98.40;;;;;;2032386;28;20036;-71
2021/03/19 02:50:42;;;;;;;29.55;18.90;;;2.40;98.40;;;;;;2032126;28;20024;-71
2021/03/19 02:51:43;;;;;;;29.45;18.60;;;2.40;98.30;;;;;;2032196;28;20102;-71
2021/03/19 02:52:44;;;;;;;31.80;19.27;;;2.30;98.40;;;;;;2032229;29;20480;-71
2021/03/19 02:53:45;;;;;;;28.40;18.25;;;2.30;98.60;;;;;;2031570;28;20511;-71
2021/03/19 02:54:46;;;;;;;32.70;20.60;;;2.30;98.70;;;;;;2032292;29;20036;-71
2021/03/19 02:55:47;;;;;;;29.20;18.38;;;2.20;98.70;;;;;;2039498;28;20711;-71
2021/03/19 02:56:48;;;;;;;29.98;18.73;;;2.20;98.70;;;;;;2039608;29;20036;-71
2021/03/19 02:57:48;;;;;;;31.23;18.73;;;2.20;98.70;;;;;;2032456;29;20024;-72
2021/03/19 02:58:49;;;;;;;32.22;19.35;;;2.20;98.80;;;;;;2031892;28;20024;-71
2021/03/19 02:59:50;;;;;;;29.40;18.67;;;2.20;98.90;;;;;;2031705;29;20508;-71
2021/03/19 03:00:50;;;;;;;29.40;18.85;;;2.30;98.80;;;;;;2039592;28;20106;-71
2021/03/19 03:01:52;;;;;;;27.85;18.00;;;2.30;98.80;;;;;;2039532;29;20130;-71
2021/03/19 03:02:52;;;;;;;33.33;19.98;;;2.30;98.70;;;;;;2032370;29;20107;-71
2021/03/19 03:03:53;;;;;;;33.92;20.63;;;2.30;98.40;;;;;;2039027;28;20031;-72
2021/03/19 03:04:53;;;;;;;32.90;20.80;;;2.30;98.40;;;;;;2039629;29;20032;-72
2021/03/19 03:05:54;;;;;;;31.27;19.88;;;2.30;98.10;;;;;;2031560;29;20395;-71
2021/03/19 03:06:57;;;;;;;35.63;21.70;;;2.30;97.90;;;;;;2031796;29;20036;-71
2021/03/19 03:07:58;;;;;;;32.70;20.17;;;2.20;98.00;;;;;;2039348;29;20818;-72
2021/03/19 03:08:58;;;;;;;35.53;21.50;;;2.20;98.20;;;;;;2031752;28;20040;-72
2021/03/19 03:10:00;;;;;;;34.15;21.00;;;2.20;98.30;;;;;;2023712;29;20084;-71
2021/03/19 03:11:01;;;;;;;39.05;23.25;;;2.20;98.40;;;;;;2031320;29;20052;-71
2021/03/19 03:12:02;;;;;;;38.85;23.20;;;2.10;98.40;;;;;;2032182;29;20029;-71
2021/03/19 03:13:04;;;;;;;37.35;22.42;;;2.10;98.50;;;;;;2032239;29;20118;-71
2021/03/19 03:14:07;;;;;;;37.22;21.80;;;2.10;98.60;;;;;;2031633;29;20031;-71
2021/03/19 03:15:11;;;;;;;36.20;21.73;;;2.10;98.60;;;;;;2031431;29;20559;-70
2021/03/19 03:16:12;;;;;;;35.70;21.30;;;2.10;98.60;;;;;;2031942;29;20048;-70
2021/03/19 03:17:13;;;;;;;35.78;21.73;;;2.10;98.70;;;;;;2031501;28;20127;-71
2021/03/19 03:18:14;;;;;;;36.83;21.98;;;2.10;98.80;;;;;;2031510;29;20102;-71
2021/03/19 03:19:18;;;;;;;36.28;21.38;;;2.00;98.80;;;;;;2039137;28;20550;-71
2021/03/19 03:20:23;;;;;;;35.83;21.70;;;2.00;98.80;;;;;;2038888;29;20031;-71
2021/03/19 03:21:24;;;;;;;34.97;21.10;;;2.00;98.90;;;;;;2023086;29;20029;-71
2021/03/19 03:22:25;;;;;;;34.50;21.05;;;2.10;98.90;;;;;;2023659;29;20021;-71
2021/03/19 03:23:27;;;;;;;35.60;21.98;;;2.00;98.90;;;;;;2031459;28;20555;-72
2021/03/19 03:24:28;;;;;;;35.90;21.73;;;2.10;98.80;;;;;;2032216;28;20064;-70
2021/03/19 03:25:29;;;;;;;32.10;20.20;;;2.00;98.80;;;;;;2031978;29;20048;-71
2021/03/19 03:26:30;;;;;;;34.70;21.10;;;2.00;98.80;;;;;;2031284;29;20443;-71
2021/03/19 03:27:31;;;;;;;34.50;21.20;;;2.00;98.70;;;;;;2031318;29;20067;-71
2021/03/19 03:28:31;;;;;;;31.15;19.90;;;2.00;98.70;;;;;;2039291;29;20024;-71
2021/03/19 03:29:32;;;;;;;32.53;20.13;;;2.00;98.80;;;;;;2039167;28;20027;-71
2021/03/19 03:30:35;;;;;;;32.95;20.42;;;2.00;98.90;;;;;;2038826;28;20483;-70
2021/03/19 03:31:36;;;;;;;31.88;19.73;;;2.00;98.90;;;;;;2031259;29;20036;-70
2021/03/19 03:32:37;;;;;;;31.85;19.70;;;2.00;98.90;;;;;;2039133;28;20027;-71
2021/03/19 03:33:38;;;;;;;31.67;19.83;;;2.00;98.90;;;;;;2038620;28;20040;-71
2021/03/19 03:34:38;;;;;;;29.55;19.40;;;2.00;98.90;;;;;;2031439;29;20082;-71
2021/03/19 03:35:41;;;;;;;31.95;20.45;;;2.00;98.90;;;;;;2031824;28;20042;-70
2021/03/19 03:36:42;;;;;;;30.88;19.38;;;2.00;98.90;;;;;;2031986;29;20039;-71
2021/03/19 03:37:42;;;;;;;28.77;18.70;;;2.00;98.80;;;;;;2039259;28;20032;-71
2021/03/19 03:38:43;;;;;;;30.00;19.17;;;2.00;98.80;;;;;;2031566;29;20044;-71
2021/03/19 03:39:44;;;;;;;29.42;19.40;;;2.00;98.90;;;;;;2023841;29;20649;-71
2021/03/19 03:40:49;;;;;;;28.58;19.27;;;2.00;98.90;;;;;;2031264;29;20028;-72
2021/03/19 03:41:51;;;;;;;29.17;18.40;;;2.00;98.90;;;;;;2031618;29;20488;-72
2021/03/19 03:42:52;;;;;;;31.58;20.10;;;2.00;98.90;;;;;;2031790;29;20073;-71
2021/03/19 03:43:53;;;;;;;29.65;19.13;;;2.10;98.90;;;;;;2031338;29;20086;-71
2021/03/19 03:44:54;;;;;;;29.63;19.02;;;2.00;98.90;;;;;;2031944;29;20150;-71
2021/03/19 03:45:55;;;;;;;29.63;19.23;;;2.00;98.80;;;;;;2031739;28;20035;-71
2021/03/19 03:46:56;;;;;;;28.60;18.75;;;2.00;98.80;;;;;;2031395;28;20086;-71
2021/03/19 03:47:56;;;;;;;27.83;17.95;;;2.10;98.90;;;;;;2023325;28;20017;-71
2021/03/19 03:48:58;;;;;;;25.30;17.60;;;2.10;99.20;;;;;;2031423;29;20032;-70
2021/03/19 03:49:58;;;;;;;27.50;18.00;;;2.10;98.90;;;;;;2039073;28;20523;-71
2021/03/19 03:51:02;;;;;;;29.30;18.77;;;2.10;98.80;;;;;;2038813;28;20058;-71
2021/03/19 03:52:02;;;;;;;28.52;18.45;;;2.10;98.70;;;;;;2038941;29;20059;-71
2021/03/19 03:53:07;;;;;;;27.40;18.20;;;2.10;98.70;;;;;;2032115;28;20032;-71
2021/03/19 03:54:09;;;;;;;30.40;19.98;;;2.10;98.60;;;;;;2031399;29;20025;-71
2021/03/19 03:55:11;;;;;;;28.38;18.73;;;2.10;98.50;;;;;;2032064;28;20403;-71
2021/03/19 03:56:13;;;;;;;27.85;18.35;;;2.10;98.60;;;;;;2031766;29;20040;-71
2021/03/19 03:57:14;;;;;;;27.13;18.10;;;2.10;98.50;;;;;;2031851;29;20038;-71
2021/03/19 03:58:14;;;;;;;28.83;18.95;;;2.10;98.50;;;;;;2031713;28;20035;-71
2021/03/19 03:59:15;;;;;;;30.15;19.40;;;2.10;98.60;;;;;;2031864;29;20503;-71
2021/03/19 04:00:19;;;;;;;28.60;18.85;;;2.10;98.60;;;;;;2031780;28;20036;-71
2021/03/19 04:01:20;;;;;;;25.42;17.75;;;2.10;98.70;;;;;;2031383;29;20412;-70
2021/03/19 04:02:24;;;;;;;25.95;17.90;;;2.10;98.70;;;;;;2031700;28;20063;-71
2021/03/19 04:03:25;;;;;;;25.23;17.05;;;2.10;98.60;;;;;;2031157;29;20477;-70
2021/03/19 04:04:26;;;;;;;25.05;17.20;;;2.10;98.70;;;;;;2031833;28;20039;-71
2021/03/19 04:05:29;;;;;;;25.38;17.45;;;2.10;98.60;;;;;;2031184;28;20452;-71
2021/03/19 04:06:30;;;;;;;24.58;17.13;;;2.10;98.60;;;;;;2031047;29;20055;-71
2021/03/19 04:07:31;;;;;;;24.40;16.88;;;2.10;98.70;;;;;;2038917;28;20082;-70
2021/03/19 04:08:32;;;;;;;25.42;17.30;;;2.10;98.70;;;;;;2038923;28;20028;-70
2021/03/19 04:09:32;;;;;;;25.02;17.20;;;2.10;98.70;;;;;;2031676;29;20121;-71
2021/03/19 04:10:34;;;;;;;26.10;17.75;;;2.10;98.70;;;;;;2038618;28;20031;-71
2021/03/19 04:11:34;;;;;;;24.50;17.15;;;2.10;98.80;;;;;;2038828;29;20122;-70
2021/03/19 04:12:35;;;;;;;24.75;16.88;;;2.10;98.70;;;;;;2038890;29;20048;-71
2021/03/19 04:13:36;;;;;;;24.35;16.30;;;2.10;98.70;;;;;;2031261;28;20039;-70
2021/03/19 04:14:38;;;;;;;25.85;17.30;;;2.10;98.80;;;;;;2031719;29;20048;-71
2021/03/19 04:15:39;;;;;;;24.98;17.02;;;2.10;98.90;;;;;;2031058;29;20078;-71
2021/03/19 04:16:40;;;;;;;27.95;18.88;;;2.10;98.80;;;;;;2031190;29;20056;-71
2021/03/19 04:17:42;;;;;;;29.10;19.50;;;2.10;98.80;;;;;;2030980;28;20393;-70
2021/03/19 04:18:43;;;;;;;26.77;17.95;;;2.10;98.90;;;;;;2023547;29;20106;-71
2021/03/19 04:19:44;;;;;;;29.05;19.30;;;2.10;98.90;;;;;;2031078;29;20034;-71
2021/03/19 04:20:47;;;;;;;27.42;18.60;;;2.10;98.80;;;;;;2038832;28;20910;-71
2021/03/19 04:21:47;;;;;;;27.65;18.17;;;2.10;98.70;;;;;;2038617;29;20713;-71
2021/03/19 04:22:48;;;;;;;26.63;18.10;;;2.10;98.70;;;;;;2031778;29;20079;-72
2021/03/19 04:23:50;;;;;;;25.65;17.33;;;2.10;98.60;;;;;;2031374;29;20028;-71
2021/03/19 04:24:51;;;;;;;27.65;18.42;;;2.10;99.00;;;;;;2031736;29;20024;-71
2021/03/19 04:25:52;;;;;;;27.08;18.35;;;2.10;98.50;;;;;;2030852;28;20016;-71
2021/03/19 04:26:53;;;;;;;26.83;18.73;;;2.10;98.50;;;;;;2022340;29;20549;-71
2021/03/19 04:27:57;;;;;;;25.70;17.75;;;2.10;98.60;;;;;;2031170;29;20032;-71
2021/03/19 04:28:58;;;;;;;28.23;18.75;;;2.10;98.70;;;;;;2031751;29;20039;-71
2021/03/19 04:29:59;;;;;;;28.02;18.85;;;2.10;98.80;;;;;;2031692;29;20086;-71
2021/03/19 04:31:00;;;;;;;27.73;18.05;;;2.10;98.60;;;;;;2031652;28;20020;-71
2021/03/19 04:32:00;;;;;;;27.52;18.50;;;2.10;98.60;;;;;;2038903;28;20030;-71
2021/03/19 04:33:01;;;;;;;26.30;18.50;;;2.10;98.70;;;;;;2039041;29;20044;-71
2021/03/19 04:34:02;;;;;;;25.80;17.60;;;2.10;98.80;;;;;;2031607;29;20788;-71
2021/03/19 04:35:03;;;;;;;26.92;18.15;;;2.10;98.70;;;;;;2032065;28;20067;-71
2021/03/19 04:36:16;;;;;;;25.45;17.60;;;2.20;98.70;;;;;;2031834;29;20028;-71
2021/03/19 04:37:17;;;;;;;29.45;19.00;;;2.20;98.70;;;;;;2031827;29;20048;-71
2021/03/19 04:38:18;;;;;;;26.17;17.15;;;2.20;98.60;;;;;;2031874;29;20044;-71
2021/03/19 04:39:24;;;;;;;25.85;17.50;;;2.20;98.60;;;;;;2031608;29;20391;-71
2021/03/19 04:40:25;;;;;;;25.10;17.38;;;2.20;98.60;;;;;;2032276;29;20043;-71
2021/03/19 04:41:28;;;;;;;26.15;17.83;;;2.20;98.60;;;;;;2031435;29;20070;-71
2021/03/19 04:42:28;;;;;;;24.30;17.00;;;2.20;98.60;;;;;;2031753;29;20017;-71
2021/03/19 04:43:29;;;;;;;22.80;16.42;;;2.20;98.70;;;;;;2031238;28;20107;-71
2021/03/19 04:44:35;;;;;;;23.95;16.73;;;2.30;98.50;;;;;;2031688;28;20042;-71
2021/03/19 04:45:43;;;;;;;22.33;15.93;;;2.30;98.20;;;;;;2031580;29;20492;-71
2021/03/19 04:46:44;;;;;;;22.55;15.90;;;2.30;98.00;;;;;;2031163;29;20507;-71
2021/03/19 04:47:45;;;;;;;20.63;15.00;;;2.30;97.90;;;;;;2023118;29;20036;-70
2021/03/19 04:48:45;;;;;;;21.63;15.40;;;2.30;98.00;;;;;;2030823;29;20067;-71
2021/03/19 04:49:46;;;;;;;22.70;15.85;;;2.30;98.00;;;;;;2038699;29;20050;-71
2021/03/19 04:50:46;;;;;;;22.15;15.65;;;2.30;98.00;;;;;;2031424;28;20472;-71
2021/03/19 04:51:48;;;;;;;22.60;15.98;;;2.20;98.00;;;;;;2038834;28;20078;-71
2021/03/19 04:52:49;;;;;;;20.15;14.40;;;2.20;98.40;;;;;;2039305;28;20023;-71
2021/03/19 04:53:50;;;;;;;20.30;14.93;;;2.20;98.10;;;;;;2031668;29;20063;-71
2021/03/19 04:54:51;;;;;;;21.67;15.60;;;2.20;98.20;;;;;;2032099;29;20036;-71
2021/03/19 04:55:52;;;;;;;23.33;16.00;;;2.20;98.40;;;;;;2031629;28;20032;-71
2021/03/19 04:56:52;;;;;;;24.10;17.00;;;2.20;98.20;;;;;;2031623;28;20135;-71
2021/03/19 04:57:53;;;;;;;23.25;16.33;;;2.20;98.40;;;;;;2031708;29;20032;-71
2021/03/19 04:58:54;;;;;;;23.15;16.50;;;2.20;98.50;;;;;;2031505;29;20082;-71
2021/03/19 04:59:55;;;;;;;23.23;16.70;;;2.20;98.40;;;;;;2031379;29;20044;-71
2021/03/19 05:00:55;;;;;;;24.38;16.60;;;2.20;98.40;;;;;;2031263;29;20024;-71
2021/03/19 05:01:58;;;;;;;23.33;16.63;;;2.20;98.40;;;;;;2031326;28;20472;-71
2021/03/19 05:02:59;;;;;;;22.15;16.23;;;2.20;98.30;;;;;;2030676;29;20886;-72
2021/03/19 05:04:00;;;;;;;22.83;16.65;;;2.20;98.20;;;;;;2030352;29;20164;-72
2021/03/19 05:05:00;;;;;;;23.15;16.52;;;2.20;98.20;;;;;;2031492;29;20055;-72
2021/03/19 05:06:01;;;;;;;23.25;16.15;;;2.20;98.20;;;;;;2031379;28;20645;-71
2021/03/19 05:07:08;;;;;;;21.83;15.90;;;2.20;98.20;;;;;;2031374;28;20024;-70
2021/03/19 05:08:09;;;;;;;23.85;16.80;;;2.20;98.30;;;;;;2031499;29;20127;-71
2021/03/19 05:09:09;;;;;;;24.45;16.55;;;2.20;98.40;;;;;;2031369;28;20032;-71
2021/03/19 05:10:12;;;;;;;23.88;16.63;;;2.20;98.40;;;;;;2030531;28;20138;-71
2021/03/19 05:11:15;;;;;;;22.73;15.95;;;2.20;98.50;;;;;;2030368;29;20040;-71
2021/03/19 05:12:16;;;;;;;21.90;15.57;;;2.20;98.50;;;;;;2031569;28;20032;-71
2021/03/19 05:13:16;;;;;;;21.63;15.65;;;2.20;98.50;;;;;;2030785;29;20776;-71
2021/03/19 05:14:18;;;;;;;22.10;15.38;;;2.20;98.50;;;;;;2031285;28;20028;-71
2021/03/19 05:15:20;;;;;;;21.35;14.98;;;2.20;98.50;;;;;;2030673;29;20033;-71
2021/03/19 05:16:20;;;;;;;21.25;15.38;;;2.20;98.40;;;;;;2030872;29;20174;-71
2021/03/19 05:17:21;;;;;;;22.50;15.88;;;2.20;98.50;;;;;;2031479;28;20760;-71
2021/03/19 05:18:22;;;;;;;23.98;16.35;;;2.20;98.50;;;;;;2031518;28;20100;-70
2021/03/19 05:19:24;;;;;;;23.92;16.13;;;2.30;98.30;;;;;;2030988;28;20028;-71
2021/03/19 05:20:26;;;;;;;23.67;15.45;;;2.30;98.30;;;;;;2030683;29;20426;-70
2021/03/19 05:21:27;;;;;;;23.65;15.68;;;2.20;98.30;;;;;;2031336;29;20036;-70
2021/03/19 05:22:27;;;;;;;23.23;15.32;;;2.20;98.40;;;;;;2031397;28;20064;-70
2021/03/19 05:23:35;;;;;;;22.90;15.50;;;2.20;98.40;;;;;;2038309;28;20047;-70
2021/03/19 05:24:36;;;;;;;22.15;15.52;;;2.20;98.50;;;;;;2038002;29;20119;-70
2021/03/19 05:25:37;;;;;;;22.33;16.08;;;2.20;98.50;;;;;;2031554;28;20028;-70
2021/03/19 05:26:39;;;;;;;20.48;14.88;;;2.20;98.60;;;;;;2031454;29;20082;-70
2021/03/19 05:27:40;;;;;;;20.17;14.30;;;2.20;98.60;;;;;;2031486;29;20056;-69
2021/03/19 05:28:41;;;;;;;21.48;15.35;;;2.20;98.60;;;;;;2038656;28;20040;-70
2021/03/19 05:29:41;;;;;;;21.95;15.55;;;2.20;98.60;;;;;;2030850;29;20028;-70
2021/03/19 05:30:42;;;;;;;22.67;15.48;;;2.30;98.60;;;;;;2030301;29;20020;-71
2021/03/19 05:31:43;;;;;;;21.63;15.00;;;2.30;98.40;;;;;;2031267;28;20450;-70
2021/03/19 05:32:45;;;;;;;22.27;15.75;;;2.30;98.30;;;;;;2031354;29;20071;-71